Time;durP1;ratioP1;P1;durP2;ratioP2;P2;SDS_P1;SDS_P2;PMS_P1;PMS_P2;Temp;Humidity;BMP_temperature;BMP_pressure;BME280_temperature;BME280_humidity;BME280_pressure;Samples;Min_cycle;Max_cycle;Signal;HPM_P1;HPM_P2
2022/08/11 00:00:56;;;;;;;3.78;1.70;;;;;;;20.87;47.32;99613.94;5064294;28;20119;-77
2022/08/11 00:03:22;;;;;;;2.10;1.55;;;;;;;20.90;47.17;99585.41;5065734;28;20037;-77
2022/08/11 00:05:53;;;;;;;5.22;1.95;;;;;;;20.74;47.39;99600.31;5063703;28;20025;-77
2022/08/11 00:08:24;;;;;;;4.60;1.90;;;;;;;20.94;47.21;99602.72;5064366;28;20028;-77
2022/08/11 00:11:03;;;;;;;4.07;1.90;;;;;;;20.17;49.91;99604.16;5061471;28;20458;-77
2022/08/11 00:13:38;;;;;;;3.67;1.70;;;;;;;20.53;48.21;99607.19;5064332;28;20070;-77
2022/08/11 00:16:17;;;;;;;2.35;1.95;;;;;;;20.62;48.11;99600.00;5047135;28;20033;-77
2022/08/11 00:18:49;;;;;;;2.78;2.03;;;;;;;20.60;48.07;99596.75;5061051;28;20525;-77
2022/08/11 00:21:15;;;;;;;2.50;1.85;;;;;;;20.61;47.91;99592.94;5062579;28;20020;-77
2022/08/11 00:23:51;;;;;;;3.50;1.95;;;;;;;20.56;48.22;99593.81;5062905;28;20024;-77
2022/08/11 00:26:17;;;;;;;2.15;1.95;;;;;;;20.34;48.04;99576.53;5065037;28;20044;-77
2022/08/11 00:28:43;;;;;;;2.45;1.80;;;;;;;20.30;48.22;99570.91;5061849;28;20493;-77
2022/08/11 00:31:20;;;;;;;2.00;1.88;;;;;;;20.41;48.26;99576.97;5067086;28;20044;-77
2022/08/11 00:33:48;;;;;;;1.65;1.40;;;;;;;20.30;48.45;99570.91;5064452;28;20541;-77
2022/08/11 00:36:16;;;;;;;3.05;1.83;;;;;;;20.40;48.53;99607.94;5061098;28;20674;-77
2022/08/11 00:38:44;;;;;;;2.55;1.58;;;;;;;20.49;48.38;99603.44;5061503;28;20119;-77
2022/08/11 00:41:10;;;;;;;5.57;1.75;;;;;;;20.34;48.65;99601.75;5059995;28;20082;-77
2022/08/11 00:44:10;;;;;;;4.75;2.00;;;;;;;20.25;48.56;99591.88;5062163;28;20033;-77
2022/08/11 00:47:09;;;;;;;3.65;1.90;;;;;;;20.31;48.63;99606.97;5056280;28;20029;-77
2022/08/11 00:49:48;;;;;;;1.88;1.70;;;;;;;20.10;48.70;99601.81;5066093;28;20040;-77
2022/08/11 00:52:32;;;;;;;1.90;1.80;;;;;;;20.21;48.77;99605.19;5065219;28;20028;-77
2022/08/11 00:55:43;;;;;;;2.45;1.98;;;;;;;19.78;49.63;99590.84;5065600;28;20032;-77
2022/08/11 00:58:40;;;;;;;4.55;1.70;;;;;;;20.32;48.99;99595.81;5056574;28;20028;-77
2022/08/11 01:01:14;;;;;;;2.90;1.52;;;;;;;20.10;49.07;99604.50;5065441;28;20040;-77
2022/08/11 01:04:17;;;;;;;2.50;2.30;;;;;;;20.04;49.12;99607.59;5062685;28;20036;-77
2022/08/11 01:06:51;;;;;;;5.40;2.00;;;;;;;19.99;49.05;99596.81;5057806;28;20464;-77
2022/08/11 01:09:35;;;;;;;2.63;1.58;;;;;;;19.87;49.31;99602.66;5061053;28;20548;-77
2022/08/11 01:12:18;;;;;;;1.65;1.52;;;;;;;19.92;49.26;99596.38;5055800;28;20566;-77
2022/08/11 01:15:27;;;;;;;2.15;1.80;;;;;;;19.93;49.36;99598.78;5062589;28;20031;-77
2022/08/11 01:18:19;;;;;;;2.90;1.60;;;;;;;19.78;49.65;99598.16;5060127;28;20025;-77
2022/08/11 01:21:01;;;;;;;2.15;1.67;;;;;;;19.82;49.36;99608.13;5061333;28;20051;-77
2022/08/11 01:23:58;;;;;;;2.65;2.13;;;;;;;19.75;49.97;99601.44;5057602;28;20029;-77
2022/08/11 01:26:46;;;;;;;3.50;2.42;;;;;;;19.70;50.05;99612.38;5060339;28;20032;-78
2022/08/11 01:29:36;;;;;;;3.25;2.00;;;;;;;19.82;49.71;99607.31;5060574;28;20381;-77
2022/08/11 01:32:39;;;;;;;4.93;1.85;;;;;;;19.69;49.69;99599.91;5063891;28;20484;-77
2022/08/11 01:35:29;;;;;;;3.08;1.85;;;;;;;19.74;49.62;99613.41;5059923;28;20029;-77
2022/08/11 01:38:11;;;;;;;1.85;1.58;;;;;;;19.75;49.74;99601.44;5058573;28;20103;-77
2022/08/11 01:41:11;;;;;;;2.28;1.95;;;;;;;19.74;50.01;99602.56;5062437;28;20039;-77
2022/08/11 01:46:55;;;;;;;3.15;1.83;;;;;;;19.31;50.48;99607.06;5060532;28;20059;-77
2022/08/11 01:49:33;;;;;;;3.22;1.88;;;;;;;19.09;51.16;99610.25;5063784;28;20041;-77
2022/08/11 01:52:14;;;;;;;3.15;1.75;;;;;;;19.44;50.47;99601.00;5076810;28;20492;-77
2022/08/11 01:54:52;;;;;;;3.03;1.90;;;;;;;19.47;50.04;99605.84;5060374;28;20024;-77
2022/08/11 01:57:52;;;;;;;1.63;1.52;;;;;;;19.15;50.96;99611.03;5061279;28;20017;-77
2022/08/11 02:00:20;;;;;;;3.40;2.25;;;;;;;19.28;51.06;99604.94;5062694;28;20107;-77
2022/08/11 02:02:58;;;;;;;3.08;2.00;;;;;;;19.23;51.16;99613.09;5044990;28;20029;-77
2022/08/11 02:06:01;;;;;;;3.65;1.80;;;;;;;19.54;50.10;99610.91;5077312;28;20474;-77
2022/08/11 02:08:56;;;;;;;2.80;1.90;;;;;;;19.28;50.66;99626.59;5077737;28;20118;-77
2022/08/11 02:11:29;;;;;;;4.32;1.65;;;;;;;19.31;50.40;99609.75;5062645;28;20109;-77
2022/08/11 02:14:19;;;;;;;2.97;1.80;;;;;;;19.26;50.62;99607.91;5049154;28;20033;-77
2022/08/11 02:16:56;;;;;;;2.05;1.70;;;;;;;19.34;50.05;99612.75;5060213;28;20025;-76
2022/08/11 02:25:30;;;;;;;2.10;1.80;;;;;;;19.31;50.40;99601.66;5064128;28;20075;-76
2022/08/11 02:28:07;;;;;;;1.98;1.50;;;;;;;19.16;50.89;99609.91;5079734;28;20020;-77
2022/08/11 02:33:21;;;;;;;1.92;1.83;;;;;;;18.96;51.21;99610.91;5063480;28;20488;-77
2022/08/11 02:33:37;;;;;;;3.95;1.70;;;;;;;19.06;50.75;99608.13;5066656;28;20491;-77
2022/08/11 02:36:11;;;;;;;1.92;1.80;;;;;;;19.10;51.02;99605.66;5052408;28;20162;-76
2022/08/11 02:38:53;;;;;;;3.47;2.13;;;;;;;19.04;50.70;99604.91;5065648;28;20037;-77
2022/08/11 02:44:50;;;;;;;2.88;1.80;;;;;;;19.03;50.98;99595.16;5068689;28;20407;-76
2022/08/11 02:47:27;;;;;;;2.78;1.80;;;;;;;18.89;51.75;99599.63;5074278;28;20443;-77
2022/08/11 02:50:02;;;;;;;3.65;2.00;;;;;;;18.91;51.28;99600.16;5069218;28;20027;-77
2022/08/11 02:52:44;;;;;;;3.63;2.08;;;;;;;18.64;52.08;99616.06;5063790;28;20492;-77
2022/08/11 02:55:20;;;;;;;2.58;1.95;;;;;;;18.90;51.68;99611.25;5077458;28;20034;-77
2022/08/11 02:58:02;;;;;;;2.25;2.00;;;;;;;18.81;51.57;99611.06;5064502;28;20020;-77
2022/08/11 03:00:34;;;;;;;1.95;1.77;;;;;;;18.85;51.60;99609.38;5068233;28;20086;-77
2022/08/11 03:03:06;;;;;;;2.15;1.95;;;;;;;18.70;52.02;99615.75;5062134;28;20060;-77
2022/08/11 03:05:48;;;;;;;3.65;1.88;;;;;;;18.70;51.49;99606.81;5064377;28;20120;-77
2022/08/11 03:08:38;;;;;;;2.63;1.85;;;;;;;18.63;51.68;99601.72;5079563;28;20185;-77
2022/08/11 03:17:09;;;;;;;2.13;2.00;;;;;;;18.69;51.86;99611.44;5065797;28;20367;-77
2022/08/11 03:20:02;;;;;;;2.33;2.10;;;;;;;18.54;52.23;99608.81;5064179;28;20059;-77
2022/08/11 03:22:36;;;;;;;3.88;2.17;;;;;;;18.64;51.80;99605.25;5065502;28;20036;-77
2022/08/11 03:25:43;;;;;;;2.03;1.67;;;;;;;18.45;52.88;99609.72;5081218;28;20035;-77
2022/08/11 03:28:08;;;;;;;;;;;;;;;18.60;51.93;99606.91;5081939;28;20035;-77
2022/08/11 03:30:45;;;;;;;3.57;2.43;;;;;;;18.37;51.95;99594.06;5079434;28;20295;-77
2022/08/11 03:36:18;;;;;;;2.30;2.10;;;;;;;18.36;52.94;99603.25;5062805;28;20082;-76
2022/08/11 03:39:02;;;;;;;5.60;2.33;;;;;;;18.41;52.05;99604.00;5076441;28;20036;-77
2022/08/11 03:41:44;;;;;;;2.00;1.90;;;;;;;18.69;52.23;99605.22;5065425;28;20032;-77
2022/08/11 03:44:19;;;;;;;6.18;2.20;;;;;;;18.40;52.46;99613.22;5060459;28;20115;-77
2022/08/11 03:46:59;;;;;;;2.67;2.47;;;;;;;18.28;52.45;99623.56;5067036;28;20032;-77
2022/08/11 03:49:56;;;;;;;2.50;2.30;;;;;;;18.33;52.53;99618.13;5073510;28;20487;-77
2022/08/11 03:52:40;;;;;;;3.00;2.30;;;;;;;18.37;52.70;99613.00;5082105;28;20495;-77
2022/08/11 03:55:30;;;;;;;2.90;2.10;;;;;;;18.42;52.16;99623.75;5062714;28;20052;-77
2022/08/11 03:58:11;;;;;;;4.70;2.38;;;;;;;18.33;52.56;99617.31;5069301;28;20017;-76
2022/08/11 04:01:01;;;;;;;2.78;2.50;;;;;;;18.08;53.39;99623.69;5079788;28;20024;-76
2022/08/11 04:03:48;;;;;;;5.65;1.98;;;;;;;18.09;53.48;99614.50;5083349;28;20040;-76
2022/08/11 04:06:13;;;;;;;2.72;2.35;;;;;;;18.35;52.28;99613.25;5081911;28;20028;-77
2022/08/11 04:08:48;;;;;;;4.28;1.98;;;;;;;18.21;53.04;99624.97;5060154;28;20405;-77
2022/08/11 04:11:14;;;;;;;6.53;2.20;;;;;;;18.13;52.91;99617.47;5061595;28;20132;-77
2022/08/11 04:17:26;;;;;;;4.25;2.15;;;;;;;18.07;53.34;99621.25;5063706;28;20032;-77
2022/08/11 04:20:29;;;;;;;4.20;2.20;;;;;;;18.19;53.29;99627.97;5065765;28;20032;-77
2022/08/11 04:23:23;;;;;;;2.58;1.98;;;;;;;18.06;53.00;99620.47;5062996;28;20028;-77
2022/08/11 04:26:03;;;;;;;2.95;2.35;;;;;;;17.80;54.65;99625.16;5064632;28;20495;-77
2022/08/11 04:28:54;;;;;;;3.50;2.00;;;;;;;17.83;54.05;99621.09;5074513;28;20035;-77
2022/08/11 04:31:38;;;;;;;3.97;2.30;;;;;;;18.00;53.37;99597.25;5077725;28;20025;-77
2022/08/11 04:34:34;;;;;;;2.35;2.15;;;;;;;18.20;53.12;99616.06;5068188;28;20567;-77
2022/08/11 04:37:36;;;;;;;2.85;1.98;;;;;;;18.32;52.92;99615.72;5062007;28;20054;-77
2022/08/11 04:40:19;;;;;;;2.92;1.90;;;;;;;18.15;53.24;99623.41;5062239;28;20033;-77
2022/08/11 04:43:20;;;;;;;2.55;2.20;;;;;;;18.07;53.93;99602.34;5064973;28;20093;-78
2022/08/11 04:46:05;;;;;;;2.60;2.38;;;;;;;18.07;53.70;99629.38;5062212;28;20035;-77
2022/08/11 05:02:25;;;;;;;3.38;2.70;;;;;;;16.78;62.20;99612.13;5068736;28;20126;-77
2022/08/11 05:08:08;;;;;;;3.05;2.38;;;;;;;16.76;61.39;99622.38;5064870;28;20125;-77
2022/08/11 05:11:07;;;;;;;2.70;2.30;;;;;;;16.85;59.87;99617.25;5080454;28;20024;-77
2022/08/11 05:37:07;;;;;;;4.43;2.92;;;;;;;16.50;64.97;99636.91;5064279;28;20031;-78
2022/08/11 05:57:01;;;;;;;6.25;3.25;;;;;;;16.60;64.72;99634.22;5065941;28;20537;-78
2022/08/11 05:59:27;;;;;;;5.78;3.45;;;;;;;16.68;64.68;99628.31;5063921;28;20178;-78
2022/08/11 06:02:00;;;;;;;4.10;3.75;;;;;;;16.83;65.03;99624.78;5060438;28;20044;-78
2022/08/11 06:04:28;;;;;;;6.50;3.65;;;;;;;16.85;65.30;99615.38;5065364;28;20040;-78
2022/08/11 06:06:57;;;;;;;7.03;3.85;;;;;;;16.70;64.69;99609.97;5065518;28;20025;-78
2022/08/11 06:09:47;;;;;;;9.88;4.20;;;;;;;16.90;65.37;99633.44;5064401;28;20392;-78
2022/08/11 06:12:20;;;;;;;7.25;4.70;;;;;;;17.05;64.27;99631.53;5059885;28;20041;-78
2022/08/11 06:14:50;;;;;;;9.85;3.55;;;;;;;17.07;64.21;99629.38;5048683;28;20032;-78
2022/08/11 06:17:29;;;;;;;7.88;3.05;;;;;;;16.97;63.64;99617.78;5063940;28;20031;-78
2022/08/11 06:20:00;;;;;;;9.80;3.85;;;;;;;17.00;64.26;99631.53;5060315;28;20031;-78
2022/08/11 06:22:26;;;;;;;8.10;4.43;;;;;;;16.91;63.38;99594.59;5057390;28;20040;-78
2022/08/11 06:24:57;;;;;;;6.65;4.00;;;;;;;17.07;64.13;99636.66;5065008;28;20074;-78
2022/08/11 06:27:25;;;;;;;6.97;3.42;;;;;;;18.00;60.13;99632.38;5044742;28;20032;-78
2022/08/11 06:29:51;;;;;;;9.00;3.97;;;;;;;17.33;61.30;99630.13;5064641;28;20032;-78
2022/08/11 06:32:18;;;;;;;10.52;3.90;;;;;;;17.98;61.26;99637.25;5065251;28;20468;-78
2022/08/11 06:35:05;;;;;;;6.25;3.42;;;;;;;17.65;62.35;99635.19;5049105;28;20360;-78
2022/08/11 06:37:55;;;;;;;7.95;3.72;;;;;;;17.54;62.55;99633.66;5060239;28;20016;-78
2022/08/11 06:41:28;;;;;;;8.90;3.60;;;;;;;18.24;60.97;99630.63;5059858;28;20032;-78
2022/08/11 06:43:48;;;;;;;9.80;3.92;;;;;;;17.83;60.80;99634.59;5057402;28;20037;-78
2022/08/11 06:46:22;;;;;;;6.97;2.90;;;;;;;18.10;59.32;99636.91;5064706;28;20028;-78
2022/08/11 06:48:48;;;;;;;7.80;3.60;;;;;;;18.03;60.74;99628.31;5066073;28;20028;-79
2022/08/11 06:51:15;;;;;;;15.57;4.22;;;;;;;18.55;57.76;99628.56;5066390;28;20033;-78
2022/08/11 06:53:55;;;;;;;11.93;3.38;;;;;;;18.14;60.65;99641.50;5066039;28;20102;-78
2022/08/11 07:02:21;;;;;;;7.00;3.50;;;;;;;18.03;60.11;99639.09;5061637;28;20546;-77
2022/08/11 07:05:00;;;;;;;8.15;3.67;;;;;;;18.35;61.31;99634.88;5063184;28;20037;-78
2022/08/11 07:16:51;;;;;;;6.18;3.30;;;;;;;18.62;59.01;99634.47;5062663;28;20389;-78
2022/08/11 07:30:29;;;;;;;15.68;3.97;;;;;;;18.94;60.40;99628.53;5046637;28;20035;-78
2022/08/11 07:32:58;;;;;;;9.77;3.72;;;;;;;18.90;58.80;99620.19;5063308;28;20036;-78
2022/08/11 07:35:31;;;;;;;14.82;4.15;;;;;;;19.08;58.89;99600.53;5063035;28;20388;-78
2022/08/11 07:38:00;;;;;;;8.15;3.10;;;;;;;19.44;58.60;99633.47;5062346;28;20162;-78
2022/08/11 07:40:26;;;;;;;14.63;3.40;;;;;;;19.42;57.63;99631.06;5065608;28;20119;-78
2022/08/11 07:42:54;;;;;;;6.93;3.25;;;;;;;19.17;58.68;99598.00;5063103;28;20028;-78
2022/08/11 07:53:38;;;;;;;14.75;3.50;;;;;;;19.66;55.70;99614.03;5064997;28;20121;-79
2022/08/11 07:56:05;;;;;;;6.00;2.97;;;;;;;20.05;56.74;99620.06;5062566;28;20549;-78
2022/08/11 08:18:00;;;;;;;6.53;2.80;;;;;;;21.46;53.85;99615.09;5065773;28;20384;-78
2022/08/11 08:20:33;;;;;;;7.32;2.58;;;;;;;21.34;52.69;99596.56;5064680;28;20041;-78
2022/08/11 08:23:01;;;;;;;8.52;3.65;;;;;;;21.43;52.79;99605.63;5062907;28;20036;-78
2022/08/11 08:25:31;;;;;;;11.55;2.90;;;;;;;21.29;53.97;99587.72;5066978;28;20063;-79
2022/08/11 08:27:58;;;;;;;10.00;2.83;;;;;;;21.23;51.93;99594.34;5069546;28;20024;-78
2022/08/11 08:33:12;;;;;;;4.20;2.55;;;;;;;21.62;52.84;99595.47;5062066;28;22288;-78
2022/08/11 08:35:40;;;;;;;11.65;2.85;;;;;;;21.91;52.34;99600.59;5062961;28;20679;-78
2022/08/11 08:38:05;;;;;;;7.22;2.90;;;;;;;21.90;51.84;99588.16;5062960;28;20017;-78
2022/08/11 08:40:31;;;;;;;4.05;3.25;;;;;;;22.01;51.95;99597.69;5031423;28;20094;-78
2022/08/11 08:43:09;;;;;;;4.28;2.60;;;;;;;22.04;52.36;99597.06;5062634;28;20082;-78
2022/08/11 08:45:36;;;;;;;7.05;2.63;;;;;;;22.10;52.05;99597.78;5065549;28;20112;-78
2022/08/11 08:48:14;;;;;;;8.43;3.38;;;;;;;22.16;51.35;99591.09;5065528;28;20041;-78
2022/08/11 08:53:37;;;;;;;4.65;2.88;;;;;;;22.33;50.31;99600.22;5061872;28;20093;-78
2022/08/11 08:56:06;;;;;;;10.32;2.65;;;;;;;22.38;51.06;99591.97;5062396;28;20036;-78
2022/08/11 08:58:35;;;;;;;9.20;2.85;;;;;;;22.46;49.75;99579.53;5061986;28;20167;-78
2022/08/11 09:01:01;;;;;;;6.00;2.92;;;;;;;22.58;51.65;99598.03;5075642;28;20460;-78
2022/08/11 09:03:27;;;;;;;6.25;3.20;;;;;;;22.68;51.37;99592.34;5066245;28;20090;-78
2022/08/11 09:05:54;;;;;;;5.82;3.10;;;;;;;23.07;51.28;99592.44;5063068;28;20538;-78
2022/08/11 09:08:22;;;;;;;9.35;3.78;;;;;;;23.02;50.41;99592.59;5060489;28;20391;-78
2022/08/11 09:11:49;;;;;;;3.85;2.75;;;;;;;23.01;49.94;99580.91;5062860;28;20031;-78
2022/08/11 09:13:35;;;;;;;6.18;2.90;;;;;;;23.37;49.83;99588.94;5061492;28;20165;-78
2022/08/11 09:16:05;;;;;;;6.53;3.20;;;;;;;23.40;49.77;99591.03;5065026;28;20638;-78
2022/08/11 09:18:31;;;;;;;2.90;2.60;;;;;;;23.89;48.81;99570.03;5063610;28;20024;-78
2022/08/11 09:20:57;;;;;;;8.88;3.45;;;;;;;23.69;49.49;99587.78;5064039;28;20051;-78
2022/08/11 09:28:54;;;;;;;3.25;3.03;;;;;;;24.37;48.20;99568.84;5064043;28;20102;-77
2022/08/11 09:31:21;;;;;;;9.70;2.75;;;;;;;24.10;48.52;99568.31;5062746;28;20680;-77
2022/08/11 09:33:51;;;;;;;3.22;2.92;;;;;;;24.15;49.41;99570.91;5066416;28;20028;-78
2022/08/11 09:41:48;;;;;;;6.53;4.80;;;;;;;24.26;45.06;99562.09;5064386;28;21065;-77
2022/08/11 09:46:58;;;;;;;7.15;3.30;;;;;;;24.70;46.67;99533.63;5050590;28;20043;-78
2022/08/11 09:49:25;;;;;;;3.95;2.67;;;;;;;25.29;45.94;99551.78;5064596;28;20122;-77
2022/08/11 09:51:52;;;;;;;5.32;3.55;;;;;;;25.04;43.52;99549.13;5078275;28;20499;-77
2022/08/11 09:54:18;;;;;;;6.75;3.90;;;;;;;25.16;43.30;99541.84;5066071;28;20082;-77
2022/08/11 09:59:29;;;;;;;6.97;3.65;;;;;;;25.35;43.94;99546.13;5064196;28;20035;-77
2022/08/11 10:02:00;;;;;;;4.00;3.25;;;;;;;25.61;43.29;99541.38;5064630;28;20390;-77
2022/08/11 10:04:34;;;;;;;7.45;4.05;;;;;;;25.38;42.65;99540.03;5063778;28;20111;-77
2022/08/11 10:07:01;;;;;;;6.78;4.32;;;;;;;25.49;42.73;99536.59;5062637;28;20040;-78
2022/08/11 10:09:55;;;;;;;4.80;3.85;;;;;;;26.24;43.68;99524.69;5063997;28;20423;-78
2022/08/11 10:12:36;;;;;;;10.00;4.95;;;;;;;25.59;41.60;99519.81;5067244;28;20042;-78
2022/08/11 10:20:52;;;;;;;5.40;3.95;;;;;;;25.99;40.32;99507.31;5062982;28;20124;-78
2022/08/11 10:28:52;;;;;;;9.65;4.03;;;;;;;26.49;39.04;99509.97;5072278;28;20116;-78
2022/08/11 10:34:06;;;;;;;5.13;4.18;;;;;;;26.60;39.81;99489.22;5067084;28;20047;-78
2022/08/11 10:36:50;;;;;;;5.78;3.92;;;;;;;26.73;39.81;99482.66;5077826;28;20044;-77
2022/08/11 10:39:20;;;;;;;4.95;4.45;;;;;;;26.70;38.86;99486.06;5044598;28;20028;-78
2022/08/11 10:44:37;;;;;;;4.22;3.70;;;;;;;27.55;39.42;99482.63;5065686;28;20082;-77
2022/08/11 10:51:11;;;;;;;4.93;3.65;;;;;;;27.44;36.91;99479.56;5064906;28;20625;-77
2022/08/11 11:00:55;;;;;;;4.80;3.90;;;;;;;28.17;36.74;99478.28;5067137;28;20044;-79
2022/08/11 11:03:24;;;;;;;4.07;3.55;;;;;;;27.62;35.66;99458.97;5081797;28;20024;-79
2022/08/11 11:05:51;;;;;;;4.88;3.15;;;;;;;27.91;36.90;99466.09;5070145;28;20033;-79
2022/08/11 11:11:06;;;;;;;6.28;3.30;;;;;;;28.47;34.70;99459.47;5062656;28;20052;-77
2022/08/11 11:19:08;;;;;;;6.03;4.10;;;;;;;28.65;34.24;99459.97;5062942;28;20529;-78
2022/08/11 11:21:37;;;;;;;8.02;3.70;;;;;;;28.14;34.90;99448.78;5060825;28;20123;-78
2022/08/11 11:24:38;;;;;;;4.47;3.50;;;;;;;27.91;34.87;99446.88;5082266;28;20177;-78
2022/08/11 11:27:11;;;;;;;5.72;3.40;;;;;;;28.78;34.62;99445.00;5065568;28;20055;-78
2022/08/11 11:29:53;;;;;;;4.45;4.03;;;;;;;28.04;34.31;99421.81;5066598;28;20988;-78
2022/08/11 11:32:30;;;;;;;5.22;3.55;;;;;;;28.56;34.88;99451.06;5064897;28;20099;-78
2022/08/11 11:35:14;;;;;;;5.03;3.42;;;;;;;28.84;34.08;99436.16;5059848;28;20039;-78
2022/08/11 11:37:41;;;;;;;8.75;3.90;;;;;;;28.89;34.52;99427.66;5065219;28;20032;-78
2022/08/11 11:40:09;;;;;;;3.78;3.40;;;;;;;28.80;33.34;99434.47;5064383;28;20421;-78
2022/08/11 11:42:36;;;;;;;3.58;3.28;;;;;;;29.44;33.41;99443.09;5079164;28;20077;-78
2022/08/11 11:45:03;;;;;;;5.28;3.80;;;;;;;29.72;33.08;99433.88;5066016;28;20052;-78
2022/08/11 11:47:30;;;;;;;4.72;3.60;;;;;;;29.90;32.85;99427.63;5077244;28;20063;-78
2022/08/11 11:49:56;;;;;;;4.82;3.53;;;;;;;30.00;32.40;99417.97;5081594;28;20032;-78
2022/08/11 11:52:22;;;;;;;3.67;3.33;;;;;;;29.99;33.13;99419.94;5047904;28;21627;-78
2022/08/11 11:54:52;;;;;;;4.70;3.55;;;;;;;30.34;32.16;99426.16;5065681;28;20037;-78
2022/08/11 12:02:54;;;;;;;5.75;3.38;;;;;;;30.25;31.28;99383.47;5068496;28;19926;-78
2022/08/11 12:05:20;;;;;;;7.60;3.28;;;;;;;31.10;31.89;99403.06;5066191;28;20017;-78
2022/08/11 12:10:31;;;;;;;3.00;2.72;;;;;;;31.58;31.75;99414.44;5068747;28;20075;-78
2022/08/11 12:15:47;;;;;;;6.78;2.78;;;;;;;31.73;32.37;99403.22;5067258;28;20091;-78
2022/08/11 12:18:14;;;;;;;9.07;3.38;;;;;;;30.72;31.54;99394.94;5041844;28;20025;-78
2022/08/11 12:20:39;;;;;;;5.63;3.30;;;;;;;31.12;33.18;99393.63;5060592;28;20075;-78
2022/08/11 12:28:34;;;;;;;4.90;3.15;;;;;;;31.84;32.88;99386.78;5066995;28;20078;-78
2022/08/11 12:31:00;;;;;;;3.67;3.38;;;;;;;31.86;30.14;99372.56;5079087;28;20025;-79
2022/08/11 12:33:26;;;;;;;3.50;3.20;;;;;;;31.58;30.66;99375.78;5068113;28;20033;-78
2022/08/11 12:35:57;;;;;;;5.05;3.10;;;;;;;31.07;31.16;99380.97;5059718;28;20024;-78
2022/08/11 12:38:23;;;;;;;4.13;2.95;;;;;;;31.84;32.79;99384.00;5048660;28;20115;-78
2022/08/11 12:46:24;;;;;;;4.87;3.43;;;;;;;32.87;31.65;99352.69;5069015;28;20124;-78
2022/08/11 12:52:00;;;;;;;5.97;3.33;;;;;;;32.73;30.44;99352.56;5065381;28;20043;-78
2022/08/11 12:54:39;;;;;;;6.63;3.55;;;;;;;32.29;30.30;99345.06;5077393;28;20066;-78
2022/08/11 13:05:36;;;;;;;3.97;2.88;;;;;;;33.44;30.07;99323.41;5061406;28;20097;-79
2022/08/11 13:08:03;;;;;;;5.20;3.17;;;;;;;32.65;29.77;99334.34;5063729;28;20071;-79
2022/08/11 13:13:17;;;;;;;4.07;3.00;;;;;;;33.18;29.07;99321.66;5067119;28;20096;-78
2022/08/11 13:15:45;;;;;;;8.07;3.83;;;;;;;32.08;30.12;99320.00;5082134;28;20033;-78
2022/08/11 13:18:21;;;;;;;4.15;3.75;;;;;;;31.75;30.88;99333.81;5069671;28;20039;-78
2022/08/11 13:20:50;;;;;;;5.80;3.55;;;;;;;32.21;30.57;99335.13;5065368;28;20135;-78
2022/08/11 13:23:16;;;;;;;3.40;3.10;;;;;;;31.45;31.01;99322.00;5067138;28;20028;-78
2022/08/11 13:25:43;;;;;;;4.75;3.00;;;;;;;32.58;32.26;99306.63;5067402;28;20123;-78
2022/08/11 13:28:11;;;;;;;3.80;3.22;;;;;;;33.49;31.69;99323.00;5068840;28;20056;-78
2022/08/11 13:33:22;;;;;;;4.70;3.50;;;;;;;33.53;28.94;99316.34;5064230;28;20081;-79
2022/08/11 13:35:52;;;;;;;3.50;3.00;;;;;;;34.07;28.47;99311.78;5067731;28;20028;-79
2022/08/11 13:38:20;;;;;;;3.88;3.38;;;;;;;33.93;28.08;99306.97;5082115;28;20119;-79
2022/08/11 13:40:48;;;;;;;4.80;3.05;;;;;;;34.08;31.03;99313.34;5064675;28;20025;-79
2022/08/11 13:43:15;;;;;;;12.75;3.53;;;;;;;33.44;29.07;99312.31;5066199;28;20112;-79
2022/08/11 13:45:43;;;;;;;8.00;3.45;;;;;;;33.87;28.48;99295.47;5050006;28;20054;-78
2022/08/11 13:48:11;;;;;;;5.80;3.47;;;;;;;34.57;28.84;99299.56;5064576;28;20139;-77
2022/08/11 13:53:24;;;;;;;7.57;3.53;;;;;;;33.63;28.96;99303.72;5062776;28;20051;-77
2022/08/11 13:55:50;;;;;;;4.90;3.45;;;;;;;32.67;30.04;99301.56;5066637;28;20360;-78
2022/08/11 13:58:16;;;;;;;7.15;3.55;;;;;;;32.68;30.23;99297.63;5066936;28;20048;-78
2022/08/11 14:00:47;;;;;;;3.70;3.22;;;;;;;32.83;30.06;99289.03;5061808;28;20032;-78
2022/08/11 14:03:13;;;;;;;3.60;2.92;;;;;;;33.36;30.99;99278.28;5070016;28;20028;-79
2022/08/11 14:05:52;;;;;;;5.50;3.10;;;;;;;32.90;29.41;99283.53;5080105;28;20055;-78
2022/08/11 14:08:26;;;;;;;5.30;3.53;;;;;;;32.97;30.42;99280.03;5064967;28;21685;-78
2022/08/11 14:13:41;;;;;;;3.83;3.50;;;;;;;32.14;30.74;99279.00;5064294;28;20121;-78
2022/08/11 14:16:23;;;;;;;4.97;3.70;;;;;;;32.52;30.38;99276.56;5063946;28;20029;-78
2022/08/11 14:18:52;;;;;;;4.10;3.05;;;;;;;32.69;32.48;99266.81;5080746;28;20117;-78
2022/08/11 14:24:10;;;;;;;8.05;3.92;;;;;;;32.85;30.08;99266.53;5065439;28;20044;-78
2022/08/11 14:26:37;;;;;;;3.90;3.15;;;;;;;33.70;31.34;99262.19;5062516;28;20396;-79
2022/08/11 14:29:08;;;;;;;5.32;3.55;;;;;;;33.89;30.16;99268.19;5074995;28;20032;-79
2022/08/11 14:31:37;;;;;;;6.60;3.03;;;;;;;33.98;29.92;99271.38;5060167;28;20115;-78
2022/08/11 14:34:06;;;;;;;4.57;3.08;;;;;;;34.15;30.22;99263.47;5062853;28;20122;-77
2022/08/11 14:36:37;;;;;;;6.88;3.08;;;;;;;33.12;28.80;99254.84;5056293;28;20032;-76
2022/08/11 14:39:11;;;;;;;7.38;3.63;;;;;;;32.72;29.47;99256.97;5058271;28;20036;-78
2022/08/11 14:47:13;;;;;;;6.82;3.67;;;;;;;32.57;30.07;99253.31;5064355;28;20120;-79
2022/08/11 14:49:40;;;;;;;4.38;3.53;;;;;;;32.15;29.96;99256.50;5076529;28;20033;-79
2022/08/11 14:52:16;;;;;;;6.25;3.53;;;;;;;32.43;30.12;99242.13;5063586;28;20028;-79
2022/08/11 14:57:34;;;;;;;6.18;3.70;;;;;;;31.61;31.07;99250.81;5061276;28;20403;-79
2022/08/11 15:00:02;;;;;;;3.45;3.13;;;;;;;32.80;31.02;99247.53;5060354;28;20028;-79
2022/08/11 15:05:13;;;;;;;5.40;4.15;;;;;;;32.70;29.92;99246.28;5047582;28;20056;-79
2022/08/11 15:07:40;;;;;;;4.38;3.70;;;;;;;32.17;30.66;99254.16;5062328;28;20029;-78
2022/08/11 15:10:08;;;;;;;10.38;3.97;;;;;;;31.43;31.27;99239.56;5074032;28;20323;-79
2022/08/11 15:12:36;;;;;;;8.02;4.07;;;;;;;31.46;31.71;99249.06;5062884;28;20403;-78
2022/08/11 15:17:52;;;;;;;4.72;3.63;;;;;;;32.69;30.83;99241.13;5059090;28;20027;-79
2022/08/11 15:25:58;;;;;;;5.75;3.65;;;;;;;32.49;30.56;99235.09;5062607;28;20779;-78
2022/08/11 15:46:00;;;;;;;8.10;3.72;;;;;;;32.46;29.93;99205.41;5063997;28;20133;-77
2022/08/11 15:48:32;;;;;;;3.72;3.42;;;;;;;32.98;30.78;99218.78;5066392;28;20031;-77
2022/08/11 15:51:09;;;;;;;4.25;3.47;;;;;;;32.47;31.11;99212.53;5067159;28;20500;-77
2022/08/11 15:53:57;;;;;;;5.10;3.92;;;;;;;31.87;31.15;99211.25;5079053;28;20016;-77
2022/08/11 15:56:25;;;;;;;3.65;3.17;;;;;;;32.60;31.17;99215.81;5078570;28;20082;-78
2022/08/11 16:04:29;;;;;;;6.13;3.80;;;;;;;32.24;31.53;99212.00;5066050;28;20079;-77
2022/08/11 16:07:05;;;;;;;3.80;3.17;;;;;;;32.79;31.18;99204.44;5065527;28;20550;-77
2022/08/11 16:09:30;;;;;;;;;;;;;;;33.25;30.92;99205.47;5064680;28;20060;-77
2022/08/11 16:11:58;;;;;;;;;;;;;;;33.22;30.98;99211.81;5062302;28;20331;-77
2022/08/11 16:17:14;;;;;;;3.60;3.10;;;;;;;33.34;30.95;99197.59;5063311;28;20028;-77
2022/08/11 16:19:41;;;;;;;9.38;4.50;;;;;;;32.73;30.23;99197.72;5060450;28;20035;-77
2022/08/11 16:22:10;;;;;;;6.60;3.90;;;;;;;31.37;30.86;99201.63;5066111;28;20025;-77
2022/08/11 16:24:43;;;;;;;6.07;3.75;;;;;;;31.27;31.45;99194.84;5060758;28;20487;-77
2022/08/11 16:27:11;;;;;;;6.60;3.55;;;;;;;30.99;31.34;99187.03;5063328;28;20128;-77
2022/08/11 16:29:42;;;;;;;8.18;3.88;;;;;;;30.48;31.96;99193.38;5068309;28;20023;-77
2022/08/11 16:32:17;;;;;;;7.00;4.47;;;;;;;30.33;31.70;99179.41;5048917;28;20059;-77
2022/08/11 16:40:25;;;;;;;5.75;3.63;;;;;;;30.45;32.00;99191.38;5048849;28;20118;-77
2022/08/11 16:48:24;;;;;;;;;;;;;;;29.75;32.38;99193.75;5062725;28;20032;-77
2022/08/11 16:50:49;;;;;;;4.22;3.55;;;;;;;29.73;32.23;99187.78;5065496;28;19913;-77
2022/08/11 16:53:17;;;;;;;7.72;3.60;;;;;;;29.85;32.51;99179.38;5050628;28;20507;-77
2022/08/11 16:55:47;;;;;;;5.47;3.33;;;;;;;29.97;32.56;99184.69;5063398;28;20459;-77
2022/08/11 17:01:00;;;;;;;12.50;3.88;;;;;;;30.71;32.30;99178.34;5065437;28;20106;-77
2022/08/11 17:14:47;;;;;;;6.10;3.90;;;;;;;30.46;32.31;99182.72;5066960;28;20047;-77
2022/08/11 17:17:17;;;;;;;6.90;4.00;;;;;;;30.03;33.90;99173.00;5062049;28;20025;-77
2022/08/11 17:19:53;;;;;;;5.10;3.33;;;;;;;29.70;32.75;99175.56;5080794;28;20032;-77
2022/08/11 17:25:07;;;;;;;8.05;4.25;;;;;;;29.66;33.14;99180.97;5062251;28;20514;-77